sensor_id;sensor_type;location;lat;lon;timestamp;P1;durP1;ratioP1;P2;durP2;ratioP2
29814;SDS011;16708;50.426;7.664;2023-06-22T00:00:00;8.90;;;5.60;;
29814;SDS011;16708;50.426;7.664;2023-06-22T00:04:54;7.20;;;5.90;;
29814;SDS011;16708;50.426;7.664;2023-06-22T00:09:49;8.80;;;6.70;;
29814;SDS011;16708;50.426;7.664;2023-06-22T00:14:42;10.30;;;6.70;;
29814;SDS011;16708;50.426;7.664;2023-06-22T00:19:37;7.90;;;6.30;;
29814;SDS011;16708;50.426;7.664;2023-06-22T00:24:31;8.50;;;6.10;;
29814;SDS011;16708;50.426;7.664;2023-06-22T00:29:25;9.20;;;6.30;;
29814;SDS011;16708;50.426;7.664;2023-06-22T00:34:19;8.90;;;6.10;;
29814;SDS011;16708;50.426;7.664;2023-06-22T00:39:13;7.10;;;5.60;;
29814;SDS011;16708;50.426;7.664;2023-06-22T00:44:07;10.80;;;6.40;;
29814;SDS011;16708;50.426;7.664;2023-06-22T00:49:02;10.30;;;6.30;;
29814;SDS011;16708;50.426;7.664;2023-06-22T00:53:56;8.50;;;6.30;;
29814;SDS011;16708;50.426;7.664;2023-06-22T00:58:49;10.40;;;6.70;;
29814;SDS011;16708;50.426;7.664;2023-06-22T01:03:42;10.80;;;6.50;;
29814;SDS011;16708;50.426;7.664;2023-06-22T01:08:35;9.00;;;6.70;;
29814;SDS011;16708;50.426;7.664;2023-06-22T01:13:29;9.70;;;6.80;;
29814;SDS011;16708;50.426;7.664;2023-06-22T01:18:23;9.20;;;6.60;;
29814;SDS011;16708;50.426;7.664;2023-06-22T01:23:17;8.40;;;6.70;;
29814;SDS011;16708;50.426;7.664;2023-06-22T01:28:09;10.20;;;6.80;;
29814;SDS011;16708;50.426;7.664;2023-06-22T01:33:03;10.70;;;7.40;;
29814;SDS011;16708;50.426;7.664;2023-06-22T01:37:57;7.70;;;6.60;;
29814;SDS011;16708;50.426;7.664;2023-06-22T01:42:50;10.40;;;7.10;;
29814;SDS011;16708;50.426;7.664;2023-06-22T01:47:42;11.70;;;7.70;;
29814;SDS011;16708;50.426;7.664;2023-06-22T01:52:36;9.80;;;7.40;;
29814;SDS011;16708;50.426;7.664;2023-06-22T01:57:30;11.40;;;7.70;;
29814;SDS011;16708;50.426;7.664;2023-06-22T02:02:25;11.90;;;7.20;;
29814;SDS011;16708;50.426;7.664;2023-06-22T02:07:18;11.10;;;7.60;;
29814;SDS011;16708;50.426;7.664;2023-06-22T02:12:12;9.40;;;7.60;;
29814;SDS011;16708;50.426;7.664;2023-06-22T02:17:05;12.70;;;7.70;;
29814;SDS011;16708;50.426;7.664;2023-06-22T02:21:58;11.30;;;7.40;;
29814;SDS011;16708;50.426;7.664;2023-06-22T02:26:52;10.90;;;7.40;;
29814;SDS011;16708;50.426;7.664;2023-06-22T02:31:47;10.40;;;7.80;;
29814;SDS011;16708;50.426;7.664;2023-06-22T02:36:41;11.40;;;8.20;;
29814;SDS011;16708;50.426;7.664;2023-06-22T02:41:34;13.00;;;8.80;;
29814;SDS011;16708;50.426;7.664;2023-06-22T02:46:28;12.00;;;8.90;;
29814;SDS011;16708;50.426;7.664;2023-06-22T02:51:22;12.60;;;9.30;;
29814;SDS011;16708;50.426;7.664;2023-06-22T02:56:18;12.30;;;9.20;;
29814;SDS011;16708;50.426;7.664;2023-06-22T03:01:10;12.70;;;9.00;;
29814;SDS011;16708;50.426;7.664;2023-06-22T03:06:04;12.00;;;9.10;;
29814;SDS011;16708;50.426;7.664;2023-06-22T03:10:59;12.50;;;9.00;;
29814;SDS011;16708;50.426;7.664;2023-06-22T03:15:51;11.90;;;9.20;;
29814;SDS011;16708;50.426;7.664;2023-06-22T03:20:45;12.40;;;9.60;;
29814;SDS011;16708;50.426;7.664;2023-06-22T03:25:39;12.80;;;9.20;;
29814;SDS011;16708;50.426;7.664;2023-06-22T03:30:33;12.80;;;9.70;;
29814;SDS011;16708;50.426;7.664;2023-06-22T03:35:26;13.60;;;9.30;;
29814;SDS011;16708;50.426;7.664;2023-06-22T03:40:21;11.70;;;9.00;;
29814;SDS011;16708;50.426;7.664;2023-06-22T03:45:15;11.80;;;9.20;;
29814;SDS011;16708;50.426;7.664;2023-06-22T03:50:09;12.00;;;9.60;;
29814;SDS011;16708;50.426;7.664;2023-06-22T03:55:04;12.70;;;9.10;;
29814;SDS011;16708;50.426;7.664;2023-06-22T03:59:58;14.40;;;9.40;;
29814;SDS011;16708;50.426;7.664;2023-06-22T04:04:51;12.30;;;9.20;;
29814;SDS011;16708;50.426;7.664;2023-06-22T04:09:46;11.40;;;8.90;;
29814;SDS011;16708;50.426;7.664;2023-06-22T04:14:39;12.20;;;9.00;;
29814;SDS011;16708;50.426;7.664;2023-06-22T04:19:34;11.40;;;8.80;;
29814;SDS011;16708;50.426;7.664;2023-06-22T04:24:28;10.60;;;8.80;;
29814;SDS011;16708;50.426;7.664;2023-06-22T04:29:22;12.10;;;9.30;;
29814;SDS011;16708;50.426;7.664;2023-06-22T04:34:16;11.30;;;8.80;;
29814;SDS011;16708;50.426;7.664;2023-06-22T04:39:09;10.00;;;8.30;;
29814;SDS011;16708;50.426;7.664;2023-06-22T04:44:04;12.10;;;8.40;;
29814;SDS011;16708;50.426;7.664;2023-06-22T04:48:58;12.30;;;8.50;;
29814;SDS011;16708;50.426;7.664;2023-06-22T04:53:52;10.50;;;8.20;;
29814;SDS011;16708;50.426;7.664;2023-06-22T04:58:46;10.10;;;7.80;;
29814;SDS011;16708;50.426;7.664;2023-06-22T05:03:40;11.70;;;7.70;;
29814;SDS011;16708;50.426;7.664;2023-06-22T05:08:34;10.40;;;7.90;;
29814;SDS011;16708;50.426;7.664;2023-06-22T05:13:29;11.20;;;8.10;;
29814;SDS011;16708;50.426;7.664;2023-06-22T05:18:23;12.40;;;8.00;;
29814;SDS011;16708;50.426;7.664;2023-06-22T05:23:18;10.50;;;7.70;;
29814;SDS011;16708;50.426;7.664;2023-06-22T05:28:09;10.90;;;7.10;;
29814;SDS011;16708;50.426;7.664;2023-06-22T05:33:04;11.40;;;7.50;;
29814;SDS011;16708;50.426;7.664;2023-06-22T05:37:59;9.30;;;7.10;;
29814;SDS011;16708;50.426;7.664;2023-06-22T05:42:53;8.70;;;6.90;;
29814;SDS011;16708;50.426;7.664;2023-06-22T05:47:47;8.90;;;7.60;;
29814;SDS011;16708;50.426;7.664;2023-06-22T05:52:41;10.00;;;7.10;;
29814;SDS011;16708;50.426;7.664;2023-06-22T05:57:33;13.70;;;7.80;;
29814;SDS011;16708;50.426;7.664;2023-06-22T06:02:27;10.40;;;7.40;;
29814;SDS011;16708;50.426;7.664;2023-06-22T06:07:21;10.10;;;7.10;;
29814;SDS011;16708;50.426;7.664;2023-06-22T06:12:16;9.30;;;7.50;;
29814;SDS011;16708;50.426;7.664;2023-06-22T06:17:11;9.70;;;7.40;;
29814;SDS011;16708;50.426;7.664;2023-06-22T06:22:05;11.30;;;7.50;;
29814;SDS011;16708;50.426;7.664;2023-06-22T06:26:59;9.20;;;6.70;;
29814;SDS011;16708;50.426;7.664;2023-06-22T06:31:54;18.40;;;8.90;;
29814;SDS011;16708;50.426;7.664;2023-06-22T06:36:48;11.40;;;7.30;;
29814;SDS011;16708;50.426;7.664;2023-06-22T06:41:40;9.10;;;7.20;;
29814;SDS011;16708;50.426;7.664;2023-06-22T06:46:35;9.70;;;7.40;;
29814;SDS011;16708;50.426;7.664;2023-06-22T06:51:30;9.30;;;7.10;;
29814;SDS011;16708;50.426;7.664;2023-06-22T06:56:24;10.10;;;7.20;;
29814;SDS011;16708;50.426;7.664;2023-06-22T07:01:19;9.60;;;7.00;;
29814;SDS011;16708;50.426;7.664;2023-06-22T07:06:13;8.60;;;6.60;;
29814;SDS011;16708;50.426;7.664;2023-06-22T07:11:08;10.90;;;6.80;;
29814;SDS011;16708;50.426;7.664;2023-06-22T07:16:02;11.20;;;7.50;;
29814;SDS011;16708;50.426;7.664;2023-06-22T07:20:57;9.00;;;6.80;;
29814;SDS011;16708;50.426;7.664;2023-06-22T07:25:52;10.00;;;6.60;;
29814;SDS011;16708;50.426;7.664;2023-06-22T07:30:46;8.40;;;6.80;;
29814;SDS011;16708;50.426;7.664;2023-06-22T07:35:42;11.30;;;7.20;;
29814;SDS011;16708;50.426;7.664;2023-06-22T07:40:35;10.20;;;7.40;;
29814;SDS011;16708;50.426;7.664;2023-06-22T07:45:29;9.20;;;7.20;;
29814;SDS011;16708;50.426;7.664;2023-06-22T07:50:23;10.20;;;7.30;;
29814;SDS011;16708;50.426;7.664;2023-06-22T07:55:17;9.00;;;6.70;;
29814;SDS011;16708;50.426;7.664;2023-06-22T08:00:12;8.40;;;6.90;;
29814;SDS011;16708;50.426;7.664;2023-06-22T08:05:06;10.10;;;6.80;;
29814;SDS011;16708;50.426;7.664;2023-06-22T08:10:00;10.30;;;7.50;;
29814;SDS011;16708;50.426;7.664;2023-06-22T08:14:54;9.40;;;7.30;;
29814;SDS011;16708;50.426;7.664;2023-06-22T08:19:48;10.30;;;7.60;;
29814;SDS011;16708;50.426;7.664;2023-06-22T08:24:42;9.40;;;7.30;;
29814;SDS011;16708;50.426;7.664;2023-06-22T08:29:37;12.70;;;8.00;;
29814;SDS011;16708;50.426;7.664;2023-06-22T08:34:31;10.70;;;7.40;;
29814;SDS011;16708;50.426;7.664;2023-06-22T08:39:25;11.00;;;7.60;;
29814;SDS011;16708;50.426;7.664;2023-06-22T08:44:19;9.50;;;8.00;;
29814;SDS011;16708;50.426;7.664;2023-06-22T08:49:14;11.60;;;8.00;;
29814;SDS011;16708;50.426;7.664;2023-06-22T08:54:09;11.60;;;7.90;;
29814;SDS011;16708;50.426;7.664;2023-06-22T08:59:03;10.90;;;7.80;;
29814;SDS011;16708;50.426;7.664;2023-06-22T09:03:58;9.00;;;7.70;;
29814;SDS011;16708;50.426;7.664;2023-06-22T09:08:51;10.30;;;8.30;;
29814;SDS011;16708;50.426;7.664;2023-06-22T09:13:46;9.20;;;7.90;;
29814;SDS011;16708;50.426;7.664;2023-06-22T09:18:39;10.40;;;8.00;;
29814;SDS011;16708;50.426;7.664;2023-06-22T09:23:42;11.70;;;8.00;;
29814;SDS011;16708;50.426;7.664;2023-06-22T09:28:28;9.70;;;7.80;;
29814;SDS011;16708;50.426;7.664;2023-06-22T09:33:20;11.20;;;8.00;;
29814;SDS011;16708;50.426;7.664;2023-06-22T09:38:14;10.40;;;7.90;;
29814;SDS011;16708;50.426;7.664;2023-06-22T09:43:09;8.90;;;7.80;;
29814;SDS011;16708;50.426;7.664;2023-06-22T09:48:04;10.60;;;8.30;;
29814;SDS011;16708;50.426;7.664;2023-06-22T09:52:58;8.10;;;7.30;;
29814;SDS011;16708;50.426;7.664;2023-06-22T09:57:53;8.70;;;7.40;;
29814;SDS011;16708;50.426;7.664;2023-06-22T10:02:47;9.40;;;7.90;;
29814;SDS011;16708;50.426;7.664;2023-06-22T10:07:40;10.20;;;8.60;;
29814;SDS011;16708;50.426;7.664;2023-06-22T10:12:34;11.10;;;8.20;;
29814;SDS011;16708;50.426;7.664;2023-06-22T10:17:28;11.20;;;8.40;;
29814;SDS011;16708;50.426;7.664;2023-06-22T10:22:23;11.90;;;8.70;;
29814;SDS011;16708;50.426;7.664;2023-06-22T10:27:17;10.60;;;8.30;;
29814;SDS011;16708;50.426;7.664;2023-06-22T10:32:11;10.50;;;8.40;;
29814;SDS011;16708;50.426;7.664;2023-06-22T10:37:04;15.60;;;10.10;;
29814;SDS011;16708;50.426;7.664;2023-06-22T10:41:58;15.90;;;10.30;;
29814;SDS011;16708;50.426;7.664;2023-06-22T10:46:52;15.50;;;10.50;;
29814;SDS011;16708;50.426;7.664;2023-06-22T10:51:46;17.40;;;11.30;;
29814;SDS011;16708;50.426;7.664;2023-06-22T10:56:40;15.00;;;11.20;;
29814;SDS011;16708;50.426;7.664;2023-06-22T11:01:35;14.10;;;10.50;;
29814;SDS011;16708;50.426;7.664;2023-06-22T11:06:30;13.70;;;10.10;;
29814;SDS011;16708;50.426;7.664;2023-06-22T11:11:25;12.80;;;9.20;;
29814;SDS011;16708;50.426;7.664;2023-06-22T11:16:19;13.30;;;9.30;;
29814;SDS011;16708;50.426;7.664;2023-06-22T11:21:14;13.10;;;9.80;;
29814;SDS011;16708;50.426;7.664;2023-06-22T11:26:09;10.20;;;9.10;;
29814;SDS011;16708;50.426;7.664;2023-06-22T11:31:03;13.30;;;9.00;;
29814;SDS011;16708;50.426;7.664;2023-06-22T11:35:57;13.10;;;9.20;;
29814;SDS011;16708;50.426;7.664;2023-06-22T11:40:50;11.20;;;9.90;;
29814;SDS011;16708;50.426;7.664;2023-06-22T11:45:43;11.60;;;9.90;;
29814;SDS011;16708;50.426;7.664;2023-06-22T11:50:37;11.70;;;9.60;;
29814;SDS011;16708;50.426;7.664;2023-06-22T11:55:31;12.90;;;9.30;;
29814;SDS011;16708;50.426;7.664;2023-06-22T12:00:25;13.80;;;8.70;;
29814;SDS011;16708;50.426;7.664;2023-06-22T12:05:20;12.00;;;9.20;;
29814;SDS011;16708;50.426;7.664;2023-06-22T12:10:14;11.30;;;8.90;;
29814;SDS011;16708;50.426;7.664;2023-06-22T12:15:09;10.60;;;8.60;;
29814;SDS011;16708;50.426;7.664;2023-06-22T12:20:05;9.90;;;8.20;;
29814;SDS011;16708;50.426;7.664;2023-06-22T12:25:01;8.70;;;7.80;;
29814;SDS011;16708;50.426;7.664;2023-06-22T12:29:54;9.20;;;8.30;;
29814;SDS011;16708;50.426;7.664;2023-06-22T12:34:49;11.90;;;8.30;;
29814;SDS011;16708;50.426;7.664;2023-06-22T12:39:44;10.40;;;8.10;;
29814;SDS011;16708;50.426;7.664;2023-06-22T12:44:39;9.70;;;7.90;;
29814;SDS011;16708;50.426;7.664;2023-06-22T12:49:34;8.70;;;7.80;;
29814;SDS011;16708;50.426;7.664;2023-06-22T12:54:28;8.60;;;7.80;;
29814;SDS011;16708;50.426;7.664;2023-06-22T12:59:21;9.10;;;7.60;;
29814;SDS011;16708;50.426;7.664;2023-06-22T13:04:15;10.60;;;7.80;;
29814;SDS011;16708;50.426;7.664;2023-06-22T13:09:08;8.60;;;7.50;;
29814;SDS011;16708;50.426;7.664;2023-06-22T13:14:03;10.00;;;7.50;;
29814;SDS011;16708;50.426;7.664;2023-06-22T13:18:57;9.30;;;7.30;;
29814;SDS011;16708;50.426;7.664;2023-06-22T13:23:50;8.60;;;7.80;;
29814;SDS011;16708;50.426;7.664;2023-06-22T13:28:45;9.50;;;7.90;;
29814;SDS011;16708;50.426;7.664;2023-06-22T13:33:40;9.10;;;8.10;;
29814;SDS011;16708;50.426;7.664;2023-06-22T13:38:35;9.60;;;7.40;;
29814;SDS011;16708;50.426;7.664;2023-06-22T13:43:29;8.60;;;7.70;;
29814;SDS011;16708;50.426;7.664;2023-06-22T13:48:22;9.80;;;7.30;;
29814;SDS011;16708;50.426;7.664;2023-06-22T13:53:15;10.20;;;7.70;;
29814;SDS011;16708;50.426;7.664;2023-06-22T13:58:08;13.50;;;8.20;;
29814;SDS011;16708;50.426;7.664;2023-06-22T14:03:00;12.00;;;8.80;;
29814;SDS011;16708;50.426;7.664;2023-06-22T14:07:53;11.80;;;8.90;;
29814;SDS011;16708;50.426;7.664;2023-06-22T14:12:47;16.20;;;9.90;;
29814;SDS011;16708;50.426;7.664;2023-06-22T14:17:40;13.80;;;9.90;;
29814;SDS011;16708;50.426;7.664;2023-06-22T14:22:34;12.30;;;9.20;;
29814;SDS011;16708;50.426;7.664;2023-06-22T14:27:29;12.40;;;8.60;;
29814;SDS011;16708;50.426;7.664;2023-06-22T14:32:22;12.90;;;4.10;;
29814;SDS011;16708;50.426;7.664;2023-06-22T14:37:16;16.90;;;3.30;;
29814;SDS011;16708;50.426;7.664;2023-06-22T14:42:09;7.90;;;2.90;;
29814;SDS011;16708;50.426;7.664;2023-06-22T14:47:03;10.60;;;3.00;;
29814;SDS011;16708;50.426;7.664;2023-06-22T14:51:58;10.90;;;3.50;;
29814;SDS011;16708;50.426;7.664;2023-06-22T14:56:51;11.40;;;3.60;;
29814;SDS011;16708;50.426;7.664;2023-06-22T15:01:44;10.60;;;3.10;;
29814;SDS011;16708;50.426;7.664;2023-06-22T15:06:39;8.30;;;2.90;;
29814;SDS011;16708;50.426;7.664;2023-06-22T15:11:33;14.20;;;4.60;;
29814;SDS011;16708;50.426;7.664;2023-06-22T15:16:27;13.20;;;3.90;;
29814;SDS011;16708;50.426;7.664;2023-06-22T15:21:21;11.80;;;3.90;;
29814;SDS011;16708;50.426;7.664;2023-06-22T15:26:15;12.70;;;3.40;;
29814;SDS011;16708;50.426;7.664;2023-06-22T15:31:08;10.30;;;3.60;;
29814;SDS011;16708;50.426;7.664;2023-06-22T15:36:03;10.90;;;3.70;;
29814;SDS011;16708;50.426;7.664;2023-06-22T15:40:57;10.30;;;2.80;;
29814;SDS011;16708;50.426;7.664;2023-06-22T15:45:52;9.10;;;3.40;;
29814;SDS011;16708;50.426;7.664;2023-06-22T15:50:46;10.30;;;2.90;;
29814;SDS011;16708;50.426;7.664;2023-06-22T15:55:41;11.10;;;3.40;;
29814;SDS011;16708;50.426;7.664;2023-06-22T16:00:35;10.60;;;3.30;;
29814;SDS011;16708;50.426;7.664;2023-06-22T16:05:29;7.70;;;3.00;;
29814;SDS011;16708;50.426;7.664;2023-06-22T16:10:24;6.60;;;2.90;;
29814;SDS011;16708;50.426;7.664;2023-06-22T16:15:18;9.00;;;2.80;;
29814;SDS011;16708;50.426;7.664;2023-06-22T16:20:12;9.10;;;3.50;;
29814;SDS011;16708;50.426;7.664;2023-06-22T16:25:07;10.00;;;3.10;;
29814;SDS011;16708;50.426;7.664;2023-06-22T16:30:01;7.30;;;2.80;;
29814;SDS011;16708;50.426;7.664;2023-06-22T16:34:56;7.20;;;2.70;;
29814;SDS011;16708;50.426;7.664;2023-06-22T16:39:50;8.00;;;3.00;;
29814;SDS011;16708;50.426;7.664;2023-06-22T16:44:46;8.20;;;3.10;;
29814;SDS011;16708;50.426;7.664;2023-06-22T16:49:39;9.20;;;2.80;;
29814;SDS011;16708;50.426;7.664;2023-06-22T16:54:34;7.70;;;3.20;;
29814;SDS011;16708;50.426;7.664;2023-06-22T16:59:28;7.00;;;3.20;;
29814;SDS011;16708;50.426;7.664;2023-06-22T17:04:23;15.50;;;3.50;;
29814;SDS011;16708;50.426;7.664;2023-06-22T17:09:18;7.80;;;2.90;;
29814;SDS011;16708;50.426;7.664;2023-06-22T17:14:12;8.70;;;3.00;;
29814;SDS011;16708;50.426;7.664;2023-06-22T17:19:06;6.10;;;3.00;;
29814;SDS011;16708;50.426;7.664;2023-06-22T17:24:01;8.90;;;2.80;;
29814;SDS011;16708;50.426;7.664;2023-06-22T17:33:50;6.80;;;3.30;;
29814;SDS011;16708;50.426;7.664;2023-06-22T17:38:44;8.10;;;3.50;;
29814;SDS011;16708;50.426;7.664;2023-06-22T17:43:39;8.40;;;3.30;;
29814;SDS011;16708;50.426;7.664;2023-06-22T17:53:27;6.40;;;3.20;;
29814;SDS011;16708;50.426;7.664;2023-06-22T17:58:21;10.10;;;3.50;;
29814;SDS011;16708;50.426;7.664;2023-06-22T18:03:16;8.20;;;2.90;;
29814;SDS011;16708;50.426;7.664;2023-06-22T18:08:10;6.90;;;3.10;;
29814;SDS011;16708;50.426;7.664;2023-06-22T18:13:04;8.00;;;3.20;;
29814;SDS011;16708;50.426;7.664;2023-06-22T18:17:56;8.60;;;3.30;;
29814;SDS011;16708;50.426;7.664;2023-06-22T18:22:50;10.30;;;3.20;;
29814;SDS011;16708;50.426;7.664;2023-06-22T18:27:43;8.20;;;3.30;;
29814;SDS011;16708;50.426;7.664;2023-06-22T18:32:37;9.40;;;3.40;;
29814;SDS011;16708;50.426;7.664;2023-06-22T18:37:31;8.90;;;3.10;;
29814;SDS011;16708;50.426;7.664;2023-06-22T18:42:25;7.90;;;3.30;;
29814;SDS011;16708;50.426;7.664;2023-06-22T18:52:13;7.00;;;1.80;;
29814;SDS011;16708;50.426;7.664;2023-06-22T18:57:07;8.10;;;1.80;;
29814;SDS011;16708;50.426;7.664;2023-06-22T19:11:45;4.40;;;1.50;;
29814;SDS011;16708;50.426;7.664;2023-06-22T19:16:40;1.90;;;1.20;;
29814;SDS011;16708;50.426;7.664;2023-06-22T19:21:34;1.80;;;1.10;;
29814;SDS011;16708;50.426;7.664;2023-06-22T19:26:28;2.00;;;1.20;;
29814;SDS011;16708;50.426;7.664;2023-06-22T19:31:22;2.50;;;1.10;;
29814;SDS011;16708;50.426;7.664;2023-06-22T19:36:17;3.70;;;1.00;;
29814;SDS011;16708;50.426;7.664;2023-06-22T19:41:11;2.50;;;1.10;;
29814;SDS011;16708;50.426;7.664;2023-06-22T19:46:03;2.30;;;1.00;;
29814;SDS011;16708;50.426;7.664;2023-06-22T19:50:57;2.90;;;1.00;;
29814;SDS011;16708;50.426;7.664;2023-06-22T19:55:52;2.90;;;1.00;;
29814;SDS011;16708;50.426;7.664;2023-06-22T20:15:29;3.00;;;1.30;;
29814;SDS011;16708;50.426;7.664;2023-06-22T20:20:23;4.20;;;1.30;;
29814;SDS011;16708;50.426;7.664;2023-06-22T20:30:11;3.00;;;1.00;;
29814;SDS011;16708;50.426;7.664;2023-06-22T20:35:05;2.40;;;0.90;;
29814;SDS011;16708;50.426;7.664;2023-06-22T20:39:59;1.20;;;0.80;;
29814;SDS011;16708;50.426;7.664;2023-06-22T20:44:53;1.40;;;0.70;;
29814;SDS011;16708;50.426;7.664;2023-06-22T20:49:48;0.90;;;0.80;;
29814;SDS011;16708;50.426;7.664;2023-06-22T20:54:42;1.90;;;0.90;;
29814;SDS011;16708;50.426;7.664;2023-06-22T20:59:37;3.20;;;1.60;;
29814;SDS011;16708;50.426;7.664;2023-06-22T21:04:31;3.80;;;2.60;;
29814;SDS011;16708;50.426;7.664;2023-06-22T21:09:25;5.00;;;3.40;;
29814;SDS011;16708;50.426;7.664;2023-06-22T21:14:19;5.40;;;4.30;;
29814;SDS011;16708;50.426;7.664;2023-06-22T21:19:13;6.10;;;4.90;;
29814;SDS011;16708;50.426;7.664;2023-06-22T21:24:07;7.60;;;5.40;;
29814;SDS011;16708;50.426;7.664;2023-06-22T21:29:02;8.70;;;5.90;;
29814;SDS011;16708;50.426;7.664;2023-06-22T21:33:56;9.30;;;5.80;;
29814;SDS011;16708;50.426;7.664;2023-06-22T21:38:50;11.20;;;6.30;;
29814;SDS011;16708;50.426;7.664;2023-06-22T21:43:44;7.80;;;5.50;;
29814;SDS011;16708;50.426;7.664;2023-06-22T21:48:38;8.30;;;5.70;;
29814;SDS011;16708;50.426;7.664;2023-06-22T21:53:32;8.90;;;6.30;;
29814;SDS011;16708;50.426;7.664;2023-06-22T21:58:25;9.80;;;6.20;;
29814;SDS011;16708;50.426;7.664;2023-06-22T22:03:20;9.90;;;6.60;;
29814;SDS011;16708;50.426;7.664;2023-06-22T22:08:14;9.80;;;6.30;;
29814;SDS011;16708;50.426;7.664;2023-06-22T22:13:06;10.70;;;6.50;;
29814;SDS011;16708;50.426;7.664;2023-06-22T22:18:01;10.20;;;7.20;;
29814;SDS011;16708;50.426;7.664;2023-06-22T22:22:55;10.40;;;6.70;;
29814;SDS011;16708;50.426;7.664;2023-06-22T22:27:49;10.00;;;6.00;;
29814;SDS011;16708;50.426;7.664;2023-06-22T22:32:42;10.50;;;6.20;;
29814;SDS011;16708;50.426;7.664;2023-06-22T22:37:36;10.00;;;7.00;;
29814;SDS011;16708;50.426;7.664;2023-06-22T22:42:30;12.90;;;8.40;;
29814;SDS011;16708;50.426;7.664;2023-06-22T22:47:25;10.00;;;6.80;;
29814;SDS011;16708;50.426;7.664;2023-06-22T22:52:19;10.50;;;7.10;;
29814;SDS011;16708;50.426;7.664;2023-06-22T22:57:14;10.40;;;7.40;;
29814;SDS011;16708;50.426;7.664;2023-06-22T23:02:08;10.60;;;6.80;;
29814;SDS011;16708;50.426;7.664;2023-06-22T23:07:03;10.90;;;6.80;;
29814;SDS011;16708;50.426;7.664;2023-06-22T23:11:57;11.60;;;6.70;;
29814;SDS011;16708;50.426;7.664;2023-06-22T23:16:51;10.30;;;6.70;;
29814;SDS011;16708;50.426;7.664;2023-06-22T23:21:45;11.40;;;6.30;;
29814;SDS011;16708;50.426;7.664;2023-06-22T23:26:39;10.00;;;6.50;;
29814;SDS011;16708;50.426;7.664;2023-06-22T23:31:33;8.50;;;5.70;;
29814;SDS011;16708;50.426;7.664;2023-06-22T23:36:27;9.60;;;5.40;;
29814;SDS011;16708;50.426;7.664;2023-06-22T23:41:22;7.70;;;4.70;;
29814;SDS011;16708;50.426;7.664;2023-06-22T23:46:16;7.10;;;4.50;;
29814;SDS011;16708;50.426;7.664;2023-06-22T23:51:10;8.10;;;4.70;;
29814;SDS011;16708;50.426;7.664;2023-06-22T23:56:05;9.20;;;4.70;;
